Glen Wilton, Virginia
Current Conditions -  °F | °C
As of 1:55 PM on Tuesday 27 Jan 2015 (Local Time) from KHSP Reporting Station
Clear Clear  
Wind Chill: 11°   Ceiling: Unl
Heat Index: 25°   Visibility: 10mi
Dew Point: 10°   Wind: 17mph
Humidity: 54%   Direction: 320°NW
Pressure: 29.64"   Gusts: 22mph
Location:  37.75°N, 79.82°W
Report Text: KHSP 271855Z AUTO 32015G19KT 10SM CLR M04/M12 A2964 RMK AO2 T10411122
Loading
Personal Weather Stations






























Interactive Weather Map New forecast layout! Learn more

10-Day Weather Forecast

Advertisements
Track Severe Weather on mobile